createdAt,value
2023-01-23T00:02:10.472Z,102156.22
2023-01-23T00:04:38.612Z,102161.34
2023-01-23T00:07:05.377Z,102165.34
2023-01-23T00:09:32.140Z,102167.06
2023-01-23T00:11:59.297Z,102167.66
2023-01-23T00:14:26.443Z,102177.13
2023-01-23T00:16:53.383Z,102174.28
2023-01-23T00:19:20.377Z,102173.81
2023-01-23T00:21:48.440Z,102167.38
2023-01-23T00:24:15.155Z,102173.97
2023-01-23T00:26:42.156Z,102169.38
2023-01-23T00:29:09.157Z,102160.34
2023-01-23T00:31:38.623Z,102163.22
2023-01-23T00:34:07.831Z,102154.75
2023-01-23T00:36:37.409Z,102162.13
2023-01-23T00:39:08.355Z,102163.41
2023-01-23T00:41:35.305Z,102162.41
2023-01-23T00:44:02.278Z,102169.88
2023-01-23T00:46:29.033Z,102176.31
2023-01-23T00:48:55.689Z,102175.00
2023-01-23T00:51:22.696Z,102172.16
2023-01-23T00:53:49.695Z,102163.84
2023-01-23T00:56:18.079Z,102156.09
2023-01-23T00:58:45.290Z,102163.53
2023-01-23T01:01:12.563Z,102161.81
2023-01-23T01:03:41.727Z,102162.34
2023-01-23T01:06:09.283Z,102158.34
2023-01-23T01:08:36.077Z,102156.75
2023-01-23T01:11:03.339Z,102163.72
2023-01-23T01:13:32.164Z,102164.31
2023-01-23T01:15:59.015Z,102156.31
2023-01-23T01:18:25.701Z,102163.59
2023-01-23T01:20:52.445Z,102170.63
2023-01-23T01:23:19.612Z,102167.56
2023-01-23T01:25:46.864Z,102170.88
2023-01-23T01:28:17.468Z,102168.03
2023-01-23T01:30:45.670Z,102171.16
2023-01-23T01:33:12.479Z,102161.88
2023-01-23T01:35:39.746Z,102167.19
2023-01-23T01:38:06.464Z,102165.44
2023-01-23T01:40:35.183Z,102164.13
2023-01-23T01:43:06.238Z,102158.56
2023-01-23T01:46:06.822Z,102162.88
2023-01-23T01:48:38.518Z,102161.25
2023-01-23T01:51:12.027Z,102169.13
2023-01-23T01:53:40.009Z,102158.81
2023-01-23T01:56:10.276Z,102157.53
2023-01-23T01:58:37.698Z,102155.28
2023-01-23T02:01:06.067Z,102163.78
2023-01-23T02:03:32.915Z,102162.53
2023-01-23T02:06:00.169Z,102164.03
2023-01-23T02:08:33.656Z,102180.91
2023-01-23T02:11:01.191Z,102177.44
2023-01-23T02:13:29.826Z,102181.03
2023-01-23T02:15:58.219Z,102178.00
2023-01-23T02:18:28.802Z,102178.19
2023-01-23T02:20:57.802Z,102182.47
2023-01-23T02:23:31.048Z,102191.47
2023-01-23T02:26:01.540Z,102192.28
2023-01-23T02:28:38.284Z,102193.00
2023-01-23T02:31:06.018Z,102189.34
2023-01-23T02:33:51.060Z,102180.94
2023-01-23T02:36:19.614Z,102188.81
2023-01-23T02:39:09.567Z,102187.31
2023-01-23T02:41:39.841Z,102189.03
2023-01-23T02:44:12.267Z,102183.59
2023-01-23T02:46:39.022Z,102195.03
2023-01-23T02:49:05.910Z,102190.72
2023-01-23T02:51:32.649Z,102183.66
2023-01-23T02:53:59.423Z,102180.47
2023-01-23T02:56:26.215Z,102179.69
2023-01-23T02:58:54.384Z,102181.88
2023-01-23T03:01:21.362Z,102176.22
2023-01-23T03:03:53.289Z,102172.03
2023-01-23T03:06:20.034Z,102174.50
2023-01-23T03:08:46.800Z,102166.50
2023-01-23T03:11:15.239Z,102160.63
2023-01-23T03:13:41.970Z,102156.03
2023-01-23T03:16:10.126Z,102159.81
2023-01-23T03:18:52.876Z,102161.03
2023-01-23T03:21:22.633Z,102153.88
2023-01-23T03:23:49.396Z,102158.09
2023-01-23T03:26:16.271Z,102151.91
2023-01-23T03:28:42.990Z,102164.00
2023-01-23T03:31:11.648Z,102163.34
2023-01-23T03:33:38.917Z,102147.91
2023-01-23T03:36:06.223Z,102151.09
2023-01-23T03:38:32.875Z,102156.78
2023-01-23T03:40:59.650Z,102157.59
2023-01-23T03:43:31.014Z,102168.34
2023-01-23T03:45:57.751Z,102156.91
2023-01-23T03:48:26.045Z,102157.81
2023-01-23T03:50:52.853Z,102161.75
2023-01-23T03:53:19.625Z,102165.56
2023-01-23T03:55:46.796Z,102170.81
2023-01-23T03:58:13.699Z,102166.69
2023-01-23T04:00:43.128Z,102169.22
2023-01-23T04:03:09.911Z,102171.03
2023-01-23T04:05:38.072Z,102173.19
2023-01-23T04:08:05.277Z,102170.56
2023-01-23T04:10:32.049Z,102166.88
2023-01-23T04:12:58.735Z,102164.06
2023-01-23T04:15:25.508Z,102167.38
2023-01-23T04:17:54.800Z,102166.00
2023-01-23T04:20:21.728Z,102164.25
2023-01-23T04:22:50.032Z,102167.72
2023-01-23T04:25:16.804Z,102176.16
2023-01-23T04:27:43.499Z,102171.03
2023-01-23T04:30:11.293Z,102173.13
2023-01-23T04:32:38.022Z,102167.25
2023-01-23T04:35:05.597Z,102168.97
2023-01-23T04:37:32.275Z,102184.00
2023-01-23T04:40:00.343Z,102174.66
2023-01-23T04:42:27.076Z,102182.16
2023-01-23T04:44:53.810Z,102187.78
2023-01-23T04:47:20.487Z,102190.44
2023-01-23T04:49:47.187Z,102178.34
2023-01-23T04:52:13.826Z,102179.94
2023-01-23T04:54:40.610Z,102187.34
2023-01-23T04:57:08.735Z,102190.59
2023-01-23T04:59:35.596Z,102195.69
2023-01-23T05:02:02.414Z,102198.16
2023-01-23T05:04:29.156Z,102209.25
2023-01-23T05:06:55.900Z,102208.28
2023-01-23T05:09:22.607Z,102218.88
2023-01-23T05:11:49.351Z,102217.75
2023-01-23T05:14:17.527Z,102221.72
2023-01-23T05:16:44.368Z,102229.13
2023-01-23T05:19:11.300Z,102220.59
2023-01-23T05:21:38.028Z,102217.41
2023-01-23T05:24:05.508Z,102223.88
2023-01-23T05:26:32.299Z,102225.00
2023-01-23T05:28:58.961Z,102223.75
2023-01-23T05:31:27.138Z,102230.53
2023-01-23T05:33:54.113Z,102225.97
2023-01-23T05:36:23.811Z,102222.66
2023-01-23T05:38:50.497Z,102218.34
2023-01-23T05:41:17.381Z,102219.44
2023-01-23T05:43:44.393Z,102214.75
2023-01-23T05:46:11.154Z,102225.75
2023-01-23T05:48:39.268Z,102219.50
2023-01-23T05:51:06.232Z,102218.13
2023-01-23T05:53:32.910Z,102216.41
2023-01-23T05:55:59.634Z,102221.09
2023-01-23T05:58:26.302Z,102221.44
2023-01-23T06:00:52.987Z,102224.41
2023-01-23T06:03:19.652Z,102218.25
2023-01-23T06:05:47.742Z,102216.09
2023-01-23T06:08:14.491Z,102226.81
2023-01-23T06:10:41.158Z,102221.94
2023-01-23T06:13:07.836Z,102225.03
2023-01-23T06:15:34.632Z,102238.13
2023-01-23T06:18:01.502Z,102238.19
2023-01-23T06:20:28.320Z,102235.84
2023-01-23T06:22:57.025Z,102242.75
2023-01-23T06:25:23.723Z,102239.91
2023-01-23T06:27:50.371Z,102243.72
2023-01-23T06:30:17.648Z,102247.38
2023-01-23T06:32:44.638Z,102253.41
2023-01-23T06:35:11.318Z,102254.88
2023-01-23T06:37:38.085Z,102259.06
2023-01-23T06:40:07.695Z,102257.34
2023-01-23T06:42:34.392Z,102257.22
2023-01-23T06:45:01.096Z,102255.22
2023-01-23T06:47:27.962Z,102248.94
2023-01-23T06:49:54.639Z,102254.69
2023-01-23T06:52:21.341Z,102261.22
2023-01-23T06:54:49.684Z,102257.59
2023-01-23T06:57:20.492Z,102258.59
2023-01-23T06:59:47.160Z,102262.66
2023-01-23T07:02:13.956Z,102271.59
2023-01-23T07:04:40.596Z,102270.25
2023-01-23T07:07:07.345Z,102272.56
2023-01-23T07:09:34.041Z,102267.53
2023-01-23T07:12:03.387Z,102261.81
2023-01-23T07:14:31.452Z,102257.38
2023-01-23T07:16:58.211Z,102257.34
2023-01-23T07:19:25.299Z,102259.97
2023-01-23T07:21:52.008Z,102263.03
2023-01-23T07:24:18.686Z,102265.13
2023-01-23T07:26:45.500Z,102254.91
2023-01-23T07:29:12.167Z,102267.31
2023-01-23T07:31:40.466Z,102260.69
2023-01-23T07:34:07.307Z,102263.47
2023-01-23T07:36:34.009Z,102263.41
2023-01-23T07:39:00.749Z,102269.28
2023-01-23T07:41:27.497Z,102271.34
2023-01-23T07:43:54.191Z,102277.66
2023-01-23T07:46:21.090Z,102270.19
2023-01-23T07:48:49.205Z,102273.63
2023-01-23T07:51:16.005Z,102278.19
2023-01-23T07:53:42.899Z,102280.50
2023-01-23T07:56:09.669Z,102289.88
2023-01-23T07:58:36.441Z,102290.00
2023-01-23T08:01:08.552Z,102292.47
2023-01-23T08:03:35.292Z,102305.63
2023-01-23T08:06:03.547Z,102303.28
2023-01-23T08:08:30.269Z,102289.34
2023-01-23T08:10:57.121Z,102288.34
2023-01-23T08:13:23.812Z,102294.00
2023-01-23T08:15:50.503Z,102284.75
2023-01-23T08:18:17.167Z,102290.22
2023-01-23T08:20:43.864Z,102287.66
2023-01-23T08:23:11.965Z,102296.59
2023-01-23T08:25:38.619Z,102293.78
2023-01-23T08:28:05.341Z,102301.16
2023-01-23T08:30:32.127Z,102295.41
2023-01-23T08:32:59.589Z,102310.41
2023-01-23T08:35:26.245Z,102318.00
2023-01-23T08:37:53.023Z,102320.59
2023-01-23T08:40:21.385Z,102324.16
2023-01-23T08:42:48.210Z,102326.06
2023-01-23T08:45:15.011Z,102325.69
2023-01-23T08:47:41.759Z,102328.75
2023-01-23T08:50:10.299Z,102331.03
2023-01-23T08:52:37.064Z,102341.47
2023-01-23T08:55:04.130Z,102340.78
2023-01-23T08:57:32.251Z,102338.81
2023-01-23T08:59:59.003Z,102344.47
2023-01-23T09:02:25.742Z,102352.13
2023-01-23T09:04:52.477Z,102358.31
2023-01-23T09:07:19.218Z,102359.38
2023-01-23T09:09:45.880Z,102361.94
2023-01-23T09:12:12.617Z,102358.09
2023-01-23T09:14:40.917Z,102358.47
2023-01-23T09:17:07.638Z,102349.31
2023-01-23T09:19:34.773Z,102343.38
2023-01-23T09:22:01.490Z,102336.91
2023-01-23T09:24:28.214Z,102333.84
2023-01-23T09:26:54.957Z,102326.53
2023-01-23T09:29:21.869Z,102330.91
2023-01-23T09:31:49.992Z,102345.13
2023-01-23T09:34:17.361Z,102345.31
2023-01-23T09:36:44.193Z,102338.44
2023-01-23T09:39:11.559Z,102342.00
2023-01-23T09:41:39.609Z,102348.31
2023-01-23T09:44:12.550Z,102349.31
2023-01-23T09:46:45.967Z,102351.50
2023-01-23T09:49:22.500Z,102363.00
2023-01-23T09:51:55.739Z,102361.16
2023-01-23T09:54:42.967Z,102360.75
2023-01-23T09:57:15.213Z,102369.19
2023-01-23T09:59:59.175Z,102378.06
2023-01-23T10:02:29.521Z,102379.66
2023-01-23T10:04:58.709Z,102381.66
2023-01-23T10:07:44.767Z,102384.00
2023-01-23T10:10:27.558Z,102379.56
2023-01-23T10:13:05.407Z,102382.91
2023-01-23T10:15:46.393Z,102403.03
2023-01-23T10:18:23.030Z,102402.31
2023-01-23T10:21:10.426Z,102402.38
2023-01-23T10:23:47.033Z,102387.66
2023-01-23T10:26:18.620Z,102392.28
2023-01-23T10:28:47.400Z,102396.06
2023-01-23T10:31:30.587Z,102396.94
2023-01-23T10:34:06.842Z,102395.97
2023-01-23T10:36:53.295Z,102394.03
2023-01-23T10:39:26.500Z,102394.69
2023-01-23T10:42:01.033Z,102401.78
2023-01-23T10:44:28.951Z,102397.34
2023-01-23T10:47:00.852Z,102390.16
2023-01-23T10:49:29.138Z,102386.88
2023-01-23T10:51:57.712Z,102372.75
2023-01-23T10:54:33.741Z,102367.31
2023-01-23T10:57:02.756Z,102366.69
2023-01-23T10:59:36.025Z,102368.41
2023-01-23T11:02:18.320Z,102388.81
2023-01-23T11:04:47.374Z,102394.16
2023-01-23T11:07:17.938Z,102396.19
2023-01-23T11:09:53.740Z,102401.91
2023-01-23T11:12:22.789Z,102404.59
2023-01-23T11:14:50.118Z,102400.44
2023-01-23T11:17:21.330Z,102396.50
2023-01-23T11:19:50.087Z,102391.59
2023-01-23T11:22:29.396Z,102388.50
2023-01-23T11:24:56.756Z,102382.44
2023-01-23T11:27:25.119Z,102373.81
2023-01-23T11:30:03.214Z,102359.28
2023-01-23T11:32:35.340Z,102365.19
2023-01-23T11:35:13.260Z,102366.09
2023-01-23T11:37:42.377Z,102370.19
2023-01-23T11:40:13.335Z,102367.16
2023-01-23T11:42:42.026Z,102360.06
2023-01-23T11:45:14.572Z,102362.44
2023-01-23T11:48:03.632Z,102353.72
2023-01-23T11:50:54.069Z,102358.84
2023-01-23T11:53:41.876Z,102346.38
2023-01-23T11:56:37.128Z,102346.16
2023-01-23T11:59:20.109Z,102347.22
2023-01-23T12:02:03.972Z,102347.28
2023-01-23T12:04:59.869Z,102357.25
2023-01-23T12:07:27.556Z,102357.50
2023-01-23T12:10:09.700Z,102365.84
2023-01-23T12:12:51.803Z,102355.91
2023-01-23T12:15:30.299Z,102355.91
2023-01-23T12:18:04.878Z,102365.69
2023-01-23T12:20:41.905Z,102363.38
2023-01-23T12:23:21.912Z,102356.78
2023-01-23T12:26:01.391Z,102360.81
2023-01-23T12:28:46.494Z,102359.00
2023-01-23T12:31:31.191Z,102367.91
2023-01-23T12:34:22.564Z,102369.91
2023-01-23T12:37:16.823Z,102364.84
2023-01-23T12:40:03.410Z,102371.22
2023-01-23T12:42:40.923Z,102382.41
2023-01-23T12:45:19.144Z,102385.03
2023-01-23T12:47:53.717Z,102387.91
2023-01-23T12:50:27.022Z,102385.47
2023-01-23T12:53:01.148Z,102390.22
2023-01-23T12:55:35.180Z,102397.38
2023-01-23T12:58:09.357Z,102389.53
2023-01-23T13:00:47.594Z,102392.25
2023-01-23T13:03:46.957Z,102388.63
2023-01-23T13:06:35.267Z,102391.59
2023-01-23T13:09:17.963Z,102404.53
2023-01-23T13:12:00.700Z,102398.13
2023-01-23T13:15:03.216Z,102399.00
2023-01-23T13:17:37.833Z,102410.31
2023-01-23T13:20:23.755Z,102414.81
2023-01-23T13:22:50.588Z,102411.56
2023-01-23T13:25:19.891Z,102401.25
2023-01-23T13:27:50.417Z,102398.94
2023-01-23T13:30:42.678Z,102402.00
2023-01-23T13:33:52.217Z,102396.88
2023-01-23T13:36:26.661Z,102393.97
2023-01-23T13:39:21.611Z,102387.94
2023-01-23T13:41:53.353Z,102395.28
2023-01-23T13:44:24.860Z,102391.09
2023-01-23T14:25:39.241Z,102362.00
2023-01-23T14:28:06.211Z,102360.81
2023-01-23T14:30:33.003Z,102366.50
2023-01-23T14:32:59.755Z,102363.56
2023-01-23T14:35:30.160Z,102356.13
2023-01-23T14:37:59.012Z,102352.31
2023-01-23T14:40:28.754Z,102354.44
2023-01-23T14:43:00.925Z,102355.44
2023-01-23T14:45:32.036Z,102366.59
2023-01-23T14:48:06.110Z,102376.59
2023-01-23T14:50:35.241Z,102373.94
2023-01-23T14:53:04.107Z,102373.94
2023-01-23T14:55:34.514Z,102368.06
2023-01-23T14:58:03.517Z,102376.13
2023-01-23T15:00:31.127Z,102371.59
2023-01-23T15:02:57.819Z,102373.31
2023-01-23T15:05:26.524Z,102376.22
2023-01-23T15:07:57.263Z,102374.97
2023-01-23T15:10:27.144Z,102373.94
2023-01-23T15:12:58.422Z,102386.91
2023-01-23T15:15:27.014Z,102377.00
2023-01-23T15:17:55.008Z,102377.53
2023-01-23T15:20:34.437Z,102380.31
2023-01-23T15:23:28.542Z,102378.31
2023-01-23T15:26:30.102Z,102378.00
2023-01-23T15:28:58.200Z,102385.00
2023-01-23T15:31:28.507Z,102377.88
2023-01-23T15:33:57.361Z,102374.75
2023-01-23T15:36:27.281Z,102377.59
2023-01-23T15:38:56.461Z,102372.50
2023-01-23T15:41:38.139Z,102358.75
2023-01-23T15:44:14.896Z,102364.25
2023-01-23T15:46:42.137Z,102363.72
2023-01-23T15:49:23.549Z,102365.03
2023-01-23T15:51:51.899Z,102364.53
2023-01-23T15:54:26.455Z,102370.72
2023-01-23T15:57:05.468Z,102367.44
2023-01-23T15:59:34.411Z,102370.19
2023-01-23T16:02:01.236Z,102375.66
2023-01-23T16:04:27.995Z,102362.03
2023-01-23T16:06:54.711Z,102365.63
2023-01-23T16:09:28.542Z,102374.25
2023-01-23T16:11:55.300Z,102372.09
2023-01-23T16:14:22.038Z,102369.31
2023-01-23T16:16:48.839Z,102374.31
2023-01-23T16:19:17.955Z,102379.03
2023-01-23T16:22:03.154Z,102367.69
2023-01-23T16:24:36.855Z,102372.72
2023-01-23T16:27:04.116Z,102370.56
2023-01-23T16:29:32.452Z,102375.69
2023-01-23T16:32:01.178Z,102377.88
2023-01-23T16:34:28.419Z,102385.44
2023-01-23T16:36:58.045Z,102375.69
2023-01-23T16:39:29.985Z,102374.50
2023-01-23T16:41:58.168Z,102382.09
2023-01-23T16:44:24.873Z,102388.38
2023-01-23T16:46:52.782Z,102388.38
2023-01-23T16:49:20.319Z,102396.94
2023-01-23T16:51:51.471Z,102392.03
2023-01-23T16:54:21.366Z,102405.91
2023-01-23T16:56:49.720Z,102416.66
2023-01-23T16:59:21.152Z,102412.22
2023-01-23T17:01:50.819Z,102401.91
2023-01-23T17:04:20.300Z,102412.91
2023-01-23T17:06:48.197Z,102407.34
2023-01-23T17:09:15.821Z,102410.09
2023-01-23T17:11:44.890Z,102406.63
2023-01-23T17:14:16.233Z,102406.03
2023-01-23T17:16:45.310Z,102406.03
2023-01-23T17:19:20.313Z,102415.75
2023-01-23T17:21:47.609Z,102424.22
2023-01-23T17:24:16.396Z,102428.28
2023-01-23T17:26:43.212Z,102425.81
2023-01-23T17:29:10.185Z,102415.50
2023-01-23T17:31:38.812Z,102415.91
2023-01-23T17:34:20.101Z,102415.56
2023-01-23T17:36:46.891Z,102420.53
2023-01-23T17:39:13.551Z,102425.97
2023-01-23T17:41:40.340Z,102421.22
2023-01-23T17:44:07.062Z,102423.81
2023-01-23T17:46:35.236Z,102425.94
2023-01-23T17:49:02.407Z,102426.66
2023-01-23T17:51:31.984Z,102435.81
2023-01-23T17:53:58.727Z,102434.88
2023-01-23T17:56:25.419Z,102429.44
2023-01-23T17:58:52.109Z,102431.91
2023-01-23T18:01:22.286Z,102423.75
2023-01-23T18:03:50.096Z,102437.06
2023-01-23T18:06:17.565Z,102443.03
2023-01-23T18:08:45.903Z,102445.00
2023-01-23T18:11:20.443Z,102439.81
2023-01-23T18:14:02.262Z,102452.22
2023-01-23T18:16:36.479Z,102453.47
2023-01-23T18:19:15.111Z,102464.63
2023-01-23T18:21:42.393Z,102461.09
2023-01-23T18:24:22.245Z,102472.09
2023-01-23T18:26:56.108Z,102468.03
2023-01-23T18:29:30.294Z,102462.97
2023-01-23T18:32:19.830Z,102464.97
2023-01-23T18:34:53.252Z,102469.28
2023-01-23T18:37:32.966Z,102468.22
2023-01-23T18:40:10.762Z,102472.66
2023-01-23T18:42:48.383Z,102473.66
2023-01-23T18:45:23.774Z,102476.00
2023-01-23T18:47:56.859Z,102471.47
2023-01-23T18:50:24.501Z,102470.25
2023-01-23T18:53:11.708Z,102469.75
2023-01-23T18:55:49.887Z,102473.81
2023-01-23T18:58:30.751Z,102473.78
2023-01-23T19:01:12.286Z,102472.06
2023-01-23T19:03:42.883Z,102474.28
2023-01-23T19:06:18.900Z,102467.72
2023-01-23T19:08:45.903Z,102473.28
2023-01-23T19:11:26.617Z,102472.59
2023-01-23T19:14:09.879Z,102465.56
2023-01-23T19:16:44.953Z,102482.34
2023-01-23T19:19:21.223Z,102483.47
2023-01-23T19:21:48.212Z,102482.84
2023-01-23T19:24:18.095Z,102477.41
2023-01-23T19:26:47.170Z,102483.59
2023-01-23T19:29:23.095Z,102483.69
2023-01-23T19:32:06.921Z,102487.41
2023-01-23T19:34:34.663Z,102480.63
2023-01-23T19:37:01.691Z,102488.78
2023-01-23T19:39:29.982Z,102495.69
2023-01-23T19:41:58.813Z,102496.31
2023-01-23T19:44:25.742Z,102495.97
2023-01-23T19:46:52.640Z,102500.00
2023-01-23T19:49:19.774Z,102508.78
2023-01-23T19:51:46.764Z,102509.88
2023-01-23T19:54:14.792Z,102510.25
2023-01-23T19:56:41.786Z,102509.66
2023-01-23T19:59:10.176Z,102517.41
2023-01-23T20:01:39.260Z,102498.41
2023-01-23T20:04:07.400Z,102500.25
2023-01-23T20:06:34.286Z,102506.69
2023-01-23T20:09:01.127Z,102514.34
2023-01-23T20:11:27.819Z,102514.72
2023-01-23T20:13:54.508Z,102505.81
2023-01-23T20:16:23.541Z,102507.28
2023-01-23T20:18:51.250Z,102512.25
2023-01-23T20:21:20.227Z,102510.41
2023-01-23T20:23:48.056Z,102520.03
2023-01-23T20:26:16.134Z,102519.03
2023-01-23T20:28:43.456Z,102518.78
2023-01-23T20:31:12.579Z,102516.69
2023-01-23T20:33:40.757Z,102513.00
2023-01-23T20:36:08.617Z,102515.59
2023-01-23T20:38:35.271Z,102516.19
2023-01-23T20:41:02.808Z,102514.41
2023-01-23T20:43:29.526Z,102515.63
2023-01-23T20:45:56.261Z,102509.47
2023-01-23T20:48:22.993Z,102504.97
2023-01-23T20:50:55.654Z,102517.06
2023-01-23T20:53:22.689Z,102519.28
2023-01-23T20:55:52.811Z,102514.81
2023-01-23T20:58:19.502Z,102515.66
2023-01-23T21:00:46.179Z,102518.84
2023-01-23T21:03:12.945Z,102512.03
2023-01-23T21:05:39.748Z,102510.94
2023-01-23T21:08:07.784Z,102515.16
2023-01-23T21:10:34.681Z,102518.22
2023-01-23T21:13:01.448Z,102523.00
2023-01-23T21:15:28.160Z,102528.72
2023-01-23T21:17:54.823Z,102528.22
2023-01-23T21:20:21.665Z,102538.25
2023-01-23T21:22:48.366Z,102527.78
2023-01-23T21:25:16.525Z,102532.09
2023-01-23T21:27:43.343Z,102527.53
2023-01-23T21:30:11.177Z,102534.94
2023-01-23T21:32:37.923Z,102534.22
2023-01-23T21:35:05.299Z,102546.31
2023-01-23T21:37:32.190Z,102542.59
2023-01-23T21:39:58.890Z,102542.38
2023-01-23T21:42:27.215Z,102528.72
2023-01-23T21:44:53.939Z,102532.44
2023-01-23T21:47:20.647Z,102536.44
2023-01-23T21:49:47.351Z,102532.22
2023-01-23T21:52:14.021Z,102544.81
2023-01-23T21:54:40.699Z,102541.06
2023-01-23T21:57:07.484Z,102530.72
2023-01-23T21:59:35.594Z,102532.75
2023-01-23T22:02:02.276Z,102529.81
2023-01-23T22:04:28.983Z,102536.09
2023-01-23T22:06:57.393Z,102538.94
2023-01-23T22:09:25.556Z,102536.66
2023-01-23T22:11:52.712Z,102539.19
2023-01-23T22:14:19.716Z,102536.97
2023-01-23T22:16:49.703Z,102535.22
2023-01-23T22:19:18.439Z,102543.47
2023-01-23T22:21:46.136Z,102547.56
2023-01-23T22:24:13.026Z,102552.00
2023-01-23T22:26:39.716Z,102551.88
2023-01-23T22:29:06.363Z,102554.69
2023-01-23T22:31:33.129Z,102569.53
2023-01-23T22:34:01.251Z,102569.31
2023-01-23T22:36:28.034Z,102567.69
2023-01-23T22:38:55.364Z,102563.78
2023-01-23T22:41:22.836Z,102563.31
2023-01-23T22:43:55.175Z,102563.88
2023-01-23T22:46:23.099Z,102566.63
2023-01-23T22:48:55.536Z,102568.22
2023-01-23T22:51:25.996Z,102565.50
2023-01-23T22:53:53.434Z,102559.44
2023-01-23T22:56:20.248Z,102557.34
2023-01-23T22:58:47.895Z,102559.56
2023-01-23T23:01:14.810Z,102559.84
2023-01-23T23:03:43.625Z,102559.63
2023-01-23T23:06:15.590Z,102558.47
2023-01-23T23:08:47.959Z,102563.31
2023-01-23T23:11:17.216Z,102558.97
2023-01-23T23:13:43.946Z,102560.41
2023-01-23T23:16:13.062Z,102560.75
2023-01-23T23:18:40.031Z,102560.53
2023-01-23T23:21:09.457Z,102552.13
2023-01-23T23:23:36.770Z,102553.13
2023-01-23T23:26:05.423Z,102556.56
2023-01-23T23:28:33.040Z,102552.28
2023-01-23T23:30:59.761Z,102554.13
2023-01-23T23:33:27.037Z,102554.88
2023-01-23T23:35:54.078Z,102552.69
2023-01-23T23:38:20.837Z,102552.06
2023-01-23T23:40:54.302Z,102556.97
2023-01-23T23:43:22.506Z,102549.81
2023-01-23T23:45:54.422Z,102545.22
2023-01-23T23:48:22.061Z,102551.84
2023-01-23T23:50:48.984Z,102546.72
2023-01-23T23:53:16.247Z,102552.16
2023-01-23T23:55:43.107Z,102554.63
2023-01-23T23:58:10.309Z,102558.22
